Time;durP1;ratioP1;P1;durP2;ratioP2;P2;SDS_P1;SDS_P2;PMS_P1;PMS_P2;Temp;Humidity;BMP_temperature;BMP_pressure;BME280_temperature;BME280_humidity;BME280_pressure;Samples;Min_cycle;Max_cycle;Signal;HPM_P1;HPM_P2
2021/10/29 00:00:34;;;;;;;15.93;8.52;;;;;;;-149.78;100.00;50324.75;4973920;28;20360;-66
2021/10/29 00:03:00;;;;;;;12.57;8.40;;;;;;;-149.78;100.00;50361.91;4975118;28;20042;-66
2021/10/29 00:05:25;;;;;;;17.55;8.95;;;;;;;-149.78;100.00;50346.28;4974935;28;20039;-66
2021/10/29 00:07:51;;;;;;;16.20;8.32;;;;;;;-149.78;100.00;50395.16;4974479;28;20081;-66
2021/10/29 00:10:16;;;;;;;16.45;8.30;;;;;;;-149.78;100.00;50361.91;4974816;28;20051;-66
2021/10/29 00:12:43;;;;;;;14.45;8.02;;;;;;;-149.78;100.00;50336.50;4970878;28;20043;-66
2021/10/29 00:15:09;;;;;;;15.30;8.32;;;;;;;-149.78;100.00;50365.84;4972658;28;20042;-66
2021/10/29 00:17:35;;;;;;;13.13;7.55;;;;;;;-149.78;100.00;50352.16;4978559;28;20049;-65
2021/10/29 00:20:02;;;;;;;12.52;7.55;;;;;;;-149.78;100.00;50358.00;4971725;28;20034;-65
2021/10/29 00:22:28;;;;;;;13.57;7.68;;;;;;;-149.78;100.00;50340.41;4969365;28;20537;-66
2021/10/29 00:24:54;;;;;;;12.43;7.88;;;;;;;-149.78;100.00;50365.84;4969598;28;20043;-66
2021/10/29 00:27:20;;;;;;;14.68;7.88;;;;;;;-149.78;100.00;50354.09;4971760;28;20046;-66
2021/10/29 00:29:46;;;;;;;16.23;8.52;;;;;;;-149.78;100.00;50361.91;4972892;28;20031;-65
2021/10/29 00:32:12;;;;;;;13.38;8.07;;;;;;;-149.78;100.00;50371.69;4976319;28;20030;-65
2021/10/29 00:34:37;;;;;;;13.70;8.45;;;;;;;-149.78;100.00;50354.09;4976010;28;20050;-66
2021/10/29 00:37:03;;;;;;;13.30;7.85;;;;;;;-149.78;100.00;50361.91;4976136;28;20125;-66
2021/10/29 00:39:29;;;;;;;16.70;8.48;;;;;;;-149.78;100.00;50365.84;4961773;28;20117;-66
2021/10/29 00:41:55;;;;;;;13.88;8.10;;;;;;;-149.78;100.00;50346.28;4969362;28;20039;-66
2021/10/29 00:44:26;;;;;;;15.52;8.70;;;;;;;-149.78;100.00;50338.44;4963607;28;20038;-66
2021/10/29 00:46:53;;;;;;;11.88;7.93;;;;;;;-149.78;100.00;50350.19;4975816;28;20095;-66
2021/10/29 00:49:20;;;;;;;12.80;7.68;;;;;;;-149.78;100.00;50358.00;4976555;28;20097;-66
2021/10/29 00:51:46;;;;;;;10.68;7.05;;;;;;;-149.78;100.00;50365.84;4978319;28;20491;-66
2021/10/29 00:54:14;;;;;;;15.30;8.88;;;;;;;-149.78;100.00;50361.91;4958169;28;20031;-66
2021/10/29 00:56:41;;;;;;;13.77;8.32;;;;;;;-149.78;100.00;50381.47;4956827;28;20035;-66
2021/10/29 00:59:07;;;;;;;16.27;8.20;;;;;;;-149.78;100.00;50346.28;4967113;28;20051;-66
2021/10/29 01:01:33;;;;;;;16.95;8.38;;;;;;;-149.78;100.00;50334.53;4973735;28;20038;-66
2021/10/29 01:03:58;;;;;;;15.13;8.82;;;;;;;-149.78;100.00;50338.44;4975170;28;20053;-66
2021/10/29 01:06:25;;;;;;;14.60;9.48;;;;;;;-149.78;100.00;50389.31;4962882;28;20066;-66
2021/10/29 01:08:51;;;;;;;14.85;8.70;;;;;;;-149.78;100.00;50361.91;4968755;28;20047;-66
2021/10/29 01:11:17;;;;;;;15.65;9.48;;;;;;;-149.78;100.00;50358.00;4969324;28;20431;-66
2021/10/29 01:13:45;;;;;;;14.50;9.07;;;;;;;-149.78;100.00;50363.88;4969598;28;20042;-66
2021/10/29 01:16:11;;;;;;;14.77;9.07;;;;;;;-149.78;100.00;50354.09;4971428;28;20537;-66
2021/10/29 01:18:37;;;;;;;12.80;8.93;;;;;;;-149.78;100.00;50350.19;4980598;28;20039;-66
2021/10/29 01:21:03;;;;;;;15.30;9.10;;;;;;;-149.78;100.00;50330.63;4977874;28;20133;-66
2021/10/29 01:23:29;;;;;;;16.23;9.25;;;;;;;-149.78;100.00;50365.84;4975113;28;20041;-66
2021/10/29 01:26:21;;;;;;;13.85;8.50;;;;;;;-149.78;100.00;50373.66;4967653;28;20051;-67
2021/10/29 01:28:48;;;;;;;13.02;8.50;;;;;;;-149.78;100.00;50334.53;4961083;28;20061;-66
2021/10/29 01:31:16;;;;;;;13.35;8.15;;;;;;;-149.78;100.00;50373.66;4967674;28;20042;-66
2021/10/29 01:33:42;;;;;;;12.60;8.00;;;;;;;-149.78;100.00;50373.66;4968396;28;20161;-66
2021/10/29 01:36:09;;;;;;;13.13;7.25;;;;;;;-149.78;100.00;50383.44;4968236;28;20117;-66
2021/10/29 01:38:38;;;;;;;12.07;7.78;;;;;;;-149.78;100.00;50383.44;4969540;28;20049;-66
2021/10/29 01:41:05;;;;;;;17.77;8.05;;;;;;;-149.78;100.00;50385.38;4970869;28;20073;-66
2021/10/29 01:43:40;;;;;;;12.40;6.50;;;;;;;-149.78;100.00;50389.31;4968148;28;20038;-66
2021/10/29 01:46:06;;;;;;;10.07;6.50;;;;;;;-149.78;100.00;50371.69;4975293;28;20035;-66
2021/10/29 01:48:31;;;;;;;12.48;6.47;;;;;;;-149.78;100.00;50365.84;4974533;28;20030;-66
2021/10/29 01:50:57;;;;;;;10.32;5.90;;;;;;;-149.78;100.00;50377.56;4973850;28;20382;-66
2021/10/29 01:53:23;;;;;;;10.75;6.32;;;;;;;-149.78;100.00;50373.66;4969558;28;20038;-65
2021/10/29 01:55:49;;;;;;;13.10;6.75;;;;;;;-149.78;100.00;50354.09;4974633;28;20498;-65
2021/10/29 01:58:16;;;;;;;11.13;7.68;;;;;;;-149.78;100.00;50358.00;4972131;28;20034;-65
2021/10/29 02:00:42;;;;;;;11.20;6.50;;;;;;;-149.78;100.00;50371.69;4976386;28;20035;-65
2021/10/29 02:03:07;;;;;;;12.32;6.57;;;;;;;-149.78;100.00;50381.47;4973200;28;20124;-65
2021/10/29 02:05:33;;;;;;;9.15;6.07;;;;;;;-149.78;100.00;50381.47;4972463;28;20485;-65
2021/10/29 02:07:59;;;;;;;9.55;6.50;;;;;;;-149.78;100.00;50358.00;4968590;28;20418;-65
2021/10/29 02:10:25;;;;;;;11.52;6.78;;;;;;;-149.78;100.00;50361.91;4968807;28;20040;-65
2021/10/29 02:12:50;;;;;;;11.10;6.30;;;;;;;-149.78;100.00;50358.00;4973017;28;20386;-65
2021/10/29 02:15:16;;;;;;;8.57;5.95;;;;;;;-149.78;100.00;50377.56;4980084;28;20046;-66
2021/10/29 02:17:41;;;;;;;10.07;5.75;;;;;;;-149.78;100.00;50426.47;4972294;28;20474;-65
2021/10/29 02:20:08;;;;;;;8.15;5.68;;;;;;;-149.78;100.00;50371.69;4966156;28;20117;-66
2021/10/29 02:22:33;;;;;;;8.98;5.82;;;;;;;-149.78;100.00;50387.34;4967315;28;20035;-66
2021/10/29 02:24:59;;;;;;;8.45;5.85;;;;;;;-149.78;100.00;50369.75;4976324;28;20363;-66
2021/10/29 02:27:26;;;;;;;9.60;5.80;;;;;;;-149.78;100.00;50373.66;4967535;28;20035;-66
2021/10/29 02:29:51;;;;;;;8.32;5.38;;;;;;;-149.78;100.00;50375.63;4972656;28;20042;-65
2021/10/29 02:32:17;;;;;;;8.80;5.38;;;;;;;-149.78;100.00;50354.09;4973429;28;20033;-66
2021/10/29 02:34:42;;;;;;;9.10;4.68;;;;;;;-149.78;100.00;50367.78;4965846;28;20042;-66
2021/10/29 02:37:08;;;;;;;6.97;4.13;;;;;;;-149.78;100.00;50387.34;4974424;28;20125;-66
2021/10/29 02:39:34;;;;;;;7.72;3.88;;;;;;;-149.78;100.00;50354.09;4973897;28;20057;-66
2021/10/29 02:42:04;;;;;;;6.28;3.70;;;;;;;-149.78;100.00;50381.47;4968434;28;20122;-66
2021/10/29 02:44:30;;;;;;;7.38;3.72;;;;;;;-149.78;100.00;50399.09;4971291;28;20101;-66
2021/10/29 02:46:56;;;;;;;5.55;3.75;;;;;;;-149.78;100.00;50354.09;4971432;28;20486;-66
2021/10/29 02:49:22;;;;;;;6.60;3.80;;;;;;;-149.78;100.00;50389.31;4974316;28;20042;-65
2021/10/29 02:51:48;;;;;;;6.63;4.13;;;;;;;-149.78;100.00;50354.09;4989058;28;20070;-66
2021/10/29 02:54:13;;;;;;;5.32;3.85;;;;;;;-149.78;100.00;50348.22;4972042;28;20066;-65
2021/10/29 02:56:39;;;;;;;8.35;4.97;;;;;;;-149.78;100.00;50361.91;4974652;28;20059;-66
2021/10/29 02:59:05;;;;;;;7.38;4.90;;;;;;;-149.78;100.00;50361.91;4967300;28;20094;-66
2021/10/29 03:01:30;;;;;;;9.65;5.82;;;;;;;-149.78;100.00;50365.84;4970776;28;20035;-66
2021/10/29 03:03:56;;;;;;;10.23;5.03;;;;;;;-149.78;100.00;50389.31;4972406;28;20038;-66
2021/10/29 03:06:22;;;;;;;9.43;5.45;;;;;;;-149.78;100.00;50399.09;4969663;28;20074;-66
2021/10/29 03:08:48;;;;;;;8.65;5.85;;;;;;;-149.78;100.00;50383.44;4972161;28;20049;-66
2021/10/29 03:11:13;;;;;;;9.35;5.97;;;;;;;-149.78;100.00;50377.56;4966084;28;20051;-66
2021/10/29 03:13:39;;;;;;;12.30;6.40;;;;;;;-149.78;100.00;50344.31;4964647;28;20046;-66
2021/10/29 03:16:06;;;;;;;9.05;5.93;;;;;;;-149.78;100.00;50389.31;4957037;28;20039;-66
2021/10/29 03:18:31;;;;;;;8.18;5.13;;;;;;;-149.78;100.00;50373.66;4963705;28;20112;-66
2021/10/29 03:20:57;;;;;;;10.80;5.07;;;;;;;-149.78;100.00;50387.34;4970889;28;20096;-66
2021/10/29 03:23:23;;;;;;;7.88;4.60;;;;;;;-149.78;100.00;50385.38;4963125;28;20045;-66
2021/10/29 03:25:48;;;;;;;8.40;4.25;;;;;;;-149.78;100.00;50377.56;4960916;28;20475;-66
2021/10/29 03:28:15;;;;;;;9.57;4.55;;;;;;;-149.78;100.00;50358.00;4967846;28;20086;-66
2021/10/29 03:30:41;;;;;;;8.77;3.90;;;;;;;-149.78;100.00;50367.78;4956787;28;20031;-66
2021/10/29 03:33:07;;;;;;;4.57;3.30;;;;;;;-149.78;100.00;50373.66;4967587;28;20032;-66
2021/10/29 03:35:33;;;;;;;6.13;3.13;;;;;;;-149.78;100.00;50393.22;4976046;28;20073;-67
2021/10/29 03:45:56;;;;;;;4.93;2.47;;;;;;;-149.78;100.00;50365.84;4967520;28;20053;-66
2021/10/29 03:56:30;;;;;;;4.95;2.20;;;;;;;-149.78;100.00;50369.75;4972442;28;20047;-66
2021/10/29 03:58:57;;;;;;;4.63;2.17;;;;;;;-149.78;100.00;50389.31;4974154;28;20031;-66
2021/10/29 04:01:23;;;;;;;6.18;2.55;;;;;;;-149.78;100.00;50387.34;4976980;28;20045;-66
2021/10/29 04:03:49;;;;;;;4.43;2.53;;;;;;;-149.78;100.00;50322.81;4970746;28;20093;-66
2021/10/29 04:06:15;;;;;;;4.55;2.90;;;;;;;-149.78;100.00;50369.75;4976988;28;20031;-66
2021/10/29 04:08:42;;;;;;;4.50;2.90;;;;;;;-149.78;100.00;50365.84;4976972;28;20126;-66
2021/10/29 04:11:08;;;;;;;8.32;3.72;;;;;;;-149.78;100.00;50385.38;4975553;28;20047;-66
2021/10/29 04:13:38;;;;;;;7.95;3.65;;;;;;;-149.78;100.00;50397.13;4977293;28;20430;-66
2021/10/29 04:16:04;;;;;;;6.65;4.15;;;;;;;-149.78;100.00;50369.75;4964323;28;20042;-66
2021/10/29 04:18:33;;;;;;;10.10;5.07;;;;;;;-149.78;100.00;50383.44;4956325;28;20463;-66
2021/10/29 04:21:00;;;;;;;11.82;5.68;;;;;;;-149.78;100.00;50401.03;4975561;28;20035;-66
2021/10/29 04:23:25;;;;;;;8.70;4.95;;;;;;;-149.78;100.00;50354.09;4976048;28;20026;-66
2021/10/29 04:25:51;;;;;;;12.13;5.78;;;;;;;-149.78;100.00;50348.22;4972292;28;20485;-66
2021/10/29 04:28:17;;;;;;;10.20;5.25;;;;;;;-149.78;100.00;50379.53;4964651;28;20039;-65
2021/10/29 04:30:44;;;;;;;11.45;5.97;;;;;;;-149.78;100.00;50373.66;4975787;28;20042;-66
2021/10/29 04:33:11;;;;;;;12.05;5.30;;;;;;;-149.78;100.00;50401.03;4974634;28;20059;-67
2021/10/29 04:35:39;;;;;;;11.75;5.45;;;;;;;-149.78;100.00;50377.56;4974369;28;20034;-66
2021/10/29 04:38:09;;;;;;;12.73;5.13;;;;;;;-149.78;100.00;50354.09;4975387;28;20394;-66
2021/10/29 04:40:36;;;;;;;10.32;5.90;;;;;;;-149.78;100.00;50381.47;4975349;28;20046;-66
2021/10/29 04:43:03;;;;;;;9.02;5.47;;;;;;;-149.78;100.00;50377.56;4968105;28;20105;-66
2021/10/29 04:45:29;;;;;;;12.85;6.03;;;;;;;-149.78;100.00;50361.91;4972629;28;20031;-66
2021/10/29 04:47:55;;;;;;;12.95;6.40;;;;;;;-149.78;100.00;50391.25;4977542;28;20121;-66
2021/10/29 04:50:20;;;;;;;15.15;7.43;;;;;;;-149.78;100.00;50391.25;4974021;28;20093;-67
2021/10/29 04:52:46;;;;;;;9.57;6.43;;;;;;;-149.78;100.00;50373.66;4972380;28;20047;-67
2021/10/29 04:55:12;;;;;;;14.00;6.50;;;;;;;-149.78;100.00;50361.91;4974793;28;20031;-66
2021/10/29 04:57:38;;;;;;;12.85;6.68;;;;;;;-149.78;100.00;50393.22;4974687;28;20077;-66
2021/10/29 05:00:06;;;;;;;13.15;5.95;;;;;;;-149.78;100.00;50387.34;4959059;28;20031;-67
2021/10/29 05:02:33;;;;;;;10.90;6.72;;;;;;;-149.78;100.00;50408.84;4967203;28;20034;-67
2021/10/29 05:05:02;;;;;;;16.40;6.00;;;;;;;-149.78;100.00;50361.91;4969651;28;20039;-67
2021/10/29 05:07:28;;;;;;;10.15;6.43;;;;;;;-149.78;100.00;50408.84;4975979;28;20038;-67
2021/10/29 05:09:54;;;;;;;12.35;6.57;;;;;;;-149.78;100.00;50393.22;4975982;28;20112;-66
2021/10/29 05:12:20;;;;;;;12.77;6.78;;;;;;;-149.78;100.00;50389.31;4976127;28;20535;-67
2021/10/29 05:14:45;;;;;;;11.45;5.80;;;;;;;-149.78;100.00;50365.84;4967464;28;20039;-67
2021/10/29 05:17:11;;;;;;;9.85;6.22;;;;;;;-149.78;100.00;50397.13;4968777;28;20039;-67
2021/10/29 05:19:37;;;;;;;13.07;5.90;;;;;;;-149.78;100.00;50399.09;4973941;28;20045;-66
2021/10/29 05:22:04;;;;;;;11.23;5.90;;;;;;;-149.78;100.00;50408.84;4962055;28;20491;-67
2021/10/29 05:24:29;;;;;;;13.77;6.55;;;;;;;-149.78;100.00;50389.31;4958572;28;20039;-67
2021/10/29 05:26:55;;;;;;;10.40;5.60;;;;;;;-149.78;100.00;50393.22;4956814;28;20075;-67
2021/10/29 05:29:21;;;;;;;12.95;5.75;;;;;;;-149.78;100.00;50387.34;4960533;28;20035;-67
2021/10/29 05:31:47;;;;;;;9.43;5.78;;;;;;;-149.78;100.00;50385.38;4961472;28;20487;-67
2021/10/29 05:34:12;;;;;;;11.38;5.45;;;;;;;-149.78;100.00;50389.31;4958751;28;20046;-67
2021/10/29 05:36:38;;;;;;;11.68;5.82;;;;;;;-149.78;100.00;50385.38;4959430;28;20058;-66
2021/10/29 05:39:05;;;;;;;13.50;5.80;;;;;;;-149.78;100.00;50408.84;4959746;28;20106;-66
2021/10/29 05:41:31;;;;;;;10.60;5.20;;;;;;;-149.78;100.00;50367.78;4970956;28;20463;-67
2021/10/29 05:43:57;;;;;;;9.38;5.28;;;;;;;-149.78;100.00;50397.13;4963004;28;20031;-67
2021/10/29 05:46:27;;;;;;;9.18;4.63;;;;;;;-149.78;100.00;50399.09;4963832;28;20046;-66
2021/10/29 05:48:53;;;;;;;10.70;4.53;;;;;;;-149.78;100.00;50385.38;4962906;28;20031;-66
2021/10/29 05:51:21;;;;;;;10.13;4.25;;;;;;;-149.78;100.00;50408.84;4958642;28;20035;-66
2021/10/29 05:56:17;;;;;;;11.93;4.78;;;;;;;-149.78;100.00;50414.72;4969048;28;20045;-66
2021/10/29 05:58:42;;;;;;;10.27;4.68;;;;;;;-149.78;100.00;50389.31;4971589;28;20050;-67
2021/10/29 06:01:08;;;;;;;11.93;5.32;;;;;;;-149.78;100.00;50397.13;4972827;28;20042;-67
2021/10/29 06:03:33;;;;;;;10.20;5.55;;;;;;;-149.78;100.00;50416.69;4970635;28;20042;-67
2021/10/29 06:06:00;;;;;;;12.45;5.43;;;;;;;-149.78;100.00;50381.47;4962726;28;20049;-68
2021/10/29 06:08:27;;;;;;;13.23;5.50;;;;;;;-149.78;100.00;50348.22;4960392;28;20069;-68
2021/10/29 06:10:53;;;;;;;13.65;6.57;;;;;;;-149.78;100.00;50420.59;4958538;28;20057;-67
2021/10/29 06:13:18;;;;;;;14.48;6.30;;;;;;;-149.78;100.00;50403.00;4960022;28;20117;-68
2021/10/29 06:15:46;;;;;;;12.77;6.15;;;;;;;-149.78;100.00;50416.69;4961075;28;20039;-67
2021/10/29 06:18:20;;;;;;;13.38;6.55;;;;;;;-149.78;100.00;50420.59;4967027;28;20131;-67
2021/10/29 06:20:46;;;;;;;15.23;6.97;;;;;;;-149.78;100.00;50416.69;4969396;28;20038;-67
2021/10/29 06:23:12;;;;;;;14.43;6.95;;;;;;;-149.78;100.00;50391.25;4967822;28;20474;-67
2021/10/29 06:25:42;;;;;;;14.25;7.15;;;;;;;-149.78;100.00;50416.69;4967608;28;20048;-67
2021/10/29 06:30:42;;;;;;;15.68;7.55;;;;;;;-149.78;100.00;50432.31;4971580;28;20030;-67
2021/10/29 06:33:09;;;;;;;15.38;6.75;;;;;;;-149.78;100.00;50404.94;4969726;28;20035;-66
2021/10/29 06:35:35;;;;;;;13.95;6.75;;;;;;;-149.78;100.00;50391.25;4969914;28;20046;-66
2021/10/29 06:38:00;;;;;;;12.98;6.50;;;;;;;-149.78;100.00;50404.94;4973671;28;20042;-66
2021/10/29 06:40:28;;;;;;;15.90;7.38;;;;;;;-149.78;100.00;50387.34;4973793;28;20031;-66
2021/10/29 06:42:59;;;;;;;14.75;6.90;;;;;;;-149.78;100.00;50397.13;4967544;28;20038;-67
2021/10/29 07:39:58;;;;;;;12.23;6.00;;;;;;;-149.78;100.00;50451.88;4967064;28;20035;-65
2021/10/29 07:42:28;;;;;;;15.02;6.07;;;;;;;-149.78;100.00;50379.53;4965523;28;20122;-65
2021/10/29 07:44:54;;;;;;;9.60;5.93;;;;;;;-149.78;100.00;50395.16;4959598;28;20042;-66
2021/10/29 07:47:21;;;;;;;17.00;6.88;;;;;;;-149.78;100.00;50434.28;4969222;28;20046;-65
2021/10/29 07:49:46;;;;;;;12.95;6.18;;;;;;;-149.78;100.00;50428.41;4980266;28;20466;-64
2021/10/29 07:52:14;;;;;;;11.25;6.40;;;;;;;-149.78;100.00;50373.66;4965155;28;20035;-63
2021/10/29 07:54:44;;;;;;;12.05;5.95;;;;;;;-149.78;100.00;50391.25;4962006;28;20051;-59
2021/10/29 07:57:19;;;;;;;10.48;5.47;;;;;;;-149.78;100.00;50373.66;4960262;28;20031;-60
2021/10/29 07:59:50;;;;;;;8.98;5.20;;;;;;;-149.78;100.00;50387.34;4963484;28;20489;-60
2021/10/29 08:02:16;;;;;;;11.57;5.88;;;;;;;-149.78;100.00;50377.56;4960885;28;20031;-60
2021/10/29 08:04:42;;;;;;;13.25;5.78;;;;;;;-149.78;100.00;50377.56;4960727;28;20549;-60
2021/10/29 08:07:08;;;;;;;18.17;5.80;;;;;;;-149.78;100.00;50365.84;4967085;28;20475;-59
2021/10/29 08:09:34;;;;;;;13.70;6.53;;;;;;;-149.78;100.00;50408.84;4960625;28;20041;-59
2021/10/29 08:12:00;;;;;;;9.60;5.63;;;;;;;-149.78;100.00;50387.34;4961403;28;20141;-59
2021/10/29 08:14:26;;;;;;;11.90;5.50;;;;;;;-149.78;100.00;50385.38;4962374;28;20049;-59
2021/10/29 08:16:52;;;;;;;11.30;6.22;;;;;;;-149.78;100.00;50377.56;4962492;28;20031;-60
2021/10/29 08:19:24;;;;;;;9.18;5.43;;;;;;;-149.78;100.00;50369.75;4964207;28;20102;-61
2021/10/29 08:21:51;;;;;;;9.15;5.78;;;;;;;-149.78;100.00;50375.63;4965434;28;20413;-60
2021/10/29 08:24:18;;;;;;;11.07;6.13;;;;;;;-149.78;100.00;50393.22;4969806;28;20755;-61
2021/10/29 08:26:44;;;;;;;9.32;5.57;;;;;;;-149.78;100.00;50365.84;4968974;28;20039;-61
2021/10/29 08:29:10;;;;;;;15.13;6.43;;;;;;;-149.78;100.00;50401.03;4969030;28;20042;-61
2021/10/29 08:31:36;;;;;;;10.65;6.13;;;;;;;-149.78;100.00;50373.66;4969900;28;20097;-60
2021/10/29 08:34:03;;;;;;;15.10;5.70;;;;;;;-149.78;100.00;50393.22;4964257;28;20062;-60
2021/10/29 08:36:30;;;;;;;10.40;5.93;;;;;;;-149.78;100.00;50359.97;4963286;28;20019;-62
2021/10/29 08:38:55;;;;;;;13.35;5.68;;;;;;;-149.78;100.00;50383.44;4962552;28;20031;-62
2021/10/29 08:41:22;;;;;;;10.43;5.45;;;;;;;-149.78;100.00;50377.56;4961044;28;20039;-60
2021/10/29 08:43:48;;;;;;;11.43;5.45;;;;;;;-149.78;100.00;50389.31;4963452;28;20043;-63
2021/10/29 08:46:16;;;;;;;14.63;6.10;;;;;;;-149.78;100.00;50393.22;4968217;28;20035;-63
2021/10/29 08:48:43;;;;;;;9.70;6.22;;;;;;;-149.78;100.00;50403.00;4963454;28;20082;-63
2021/10/29 08:51:10;;;;;;;14.45;6.40;;;;;;;-149.78;100.00;50354.09;4961229;28;20104;-63
2021/10/29 08:53:36;;;;;;;16.95;6.68;;;;;;;-149.78;100.00;50416.69;4965101;28;20043;-60
2021/10/29 08:56:04;;;;;;;15.20;6.72;;;;;;;-149.78;100.00;50395.16;4962236;28;20058;-62
2021/10/29 08:58:34;;;;;;;14.38;6.80;;;;;;;-149.78;100.00;50373.66;4965080;28;20022;-60
2021/10/29 09:01:08;;;;;;;15.80;6.68;;;;;;;-149.78;100.00;50377.56;4966364;28;20035;-63
2021/10/29 09:03:44;;;;;;;13.65;6.32;;;;;;;-149.78;100.00;50401.03;4964473;28;20041;-63
2021/10/29 09:17:41;;;;;;;9.25;4.95;;;;;;;-149.78;100.00;50377.56;4969249;28;20114;-62
2021/10/29 09:33:56;;;;;;;8.43;3.75;;;;;;;-149.78;100.00;50389.31;4970747;28;20022;-63
2021/10/29 09:36:41;;;;;;;5.72;3.85;;;;;;;-149.78;100.00;50361.91;4972353;28;20183;-62
2021/10/29 09:39:14;;;;;;;10.15;4.00;;;;;;;-149.78;100.00;50391.25;4971958;28;20114;-63
2021/10/29 09:41:40;;;;;;;6.53;3.65;;;;;;;-149.78;100.00;50359.97;4971489;28;20082;-63
2021/10/29 09:44:19;;;;;;;6.65;3.42;;;;;;;-149.78;100.00;50358.00;4971641;28;20034;-63
2021/10/29 09:47:02;;;;;;;5.75;3.20;;;;;;;-149.78;100.00;50326.72;4962783;28;20039;-63
2021/10/29 09:57:27;;;;;;;5.25;2.42;;;;;;;-149.78;100.00;50342.38;4973993;28;20109;-64
2021/10/29 10:00:10;;;;;;;3.67;2.33;;;;;;;-149.78;100.00;50367.78;4971513;28;20031;-63
2021/10/29 10:02:45;;;;;;;4.60;2.33;;;;;;;-149.78;100.00;50350.19;4971067;28;20478;-62
2021/10/29 10:05:13;;;;;;;4.60;2.47;;;;;;;-149.78;100.00;50332.59;4973723;28;20030;-63
2021/10/29 10:07:42;;;;;;;3.08;1.70;;;;;;;-149.78;100.00;50381.47;4971634;28;20105;-62
2021/10/29 10:10:10;;;;;;;5.47;2.00;;;;;;;-149.78;100.00;50367.78;4957372;28;20090;-62
2021/10/29 10:12:40;;;;;;;4.75;1.80;;;;;;;-149.78;100.00;50348.22;4972281;28;20063;-63
2021/10/29 10:15:08;;;;;;;4.68;2.00;;;;;;;-149.78;100.00;50377.56;4967745;28;20034;-63
2021/10/29 10:17:34;;;;;;;2.90;1.63;;;;;;;-149.78;100.00;50377.56;4968327;28;20114;-63
2021/10/29 10:20:04;;;;;;;4.03;1.80;;;;;;;-149.78;100.00;50311.06;4973706;28;20496;-62
2021/10/29 10:22:37;;;;;;;3.17;1.60;;;;;;;-149.78;100.00;50369.75;4968093;28;20406;-63
2021/10/29 10:25:09;;;;;;;3.55;1.58;;;;;;;-149.78;100.00;50377.56;4961835;28;20031;-65
2021/10/29 10:46:58;;;;;;;1.88;1.42;;;;;;;-149.78;100.00;50381.47;4961677;28;20542;-64
2021/10/29 10:49:42;;;;;;;1.98;1.20;;;;;;;-149.78;100.00;50395.16;4960326;28;20478;-66
2021/10/29 10:52:22;;;;;;;7.57;1.80;;;;;;;-149.78;100.00;50350.19;4968341;28;20429;-63
2021/10/29 10:54:57;;;;;;;2.42;1.50;;;;;;;-149.78;100.00;50395.16;4967102;28;20043;-63
2021/10/29 10:57:40;;;;;;;4.32;1.48;;;;;;;-149.78;100.00;50352.16;4967113;28;20482;-63
2021/10/29 11:00:33;;;;;;;3.30;1.40;;;;;;;-149.78;100.00;50348.22;4967645;28;20149;-62
2021/10/29 11:11:14;;;;;;;1.60;0.80;;;;;;;-149.78;100.00;50381.47;4963449;28;20181;-61
2021/10/29 11:13:43;;;;;;;3.65;1.08;;;;;;;-149.78;100.00;50373.66;4966140;28;20114;-61
2021/10/29 11:16:26;;;;;;;2.65;0.70;;;;;;;-149.78;100.00;50369.75;4965786;28;20015;-63
2021/10/29 11:19:25;;;;;;;4.47;0.95;;;;;;;-149.78;100.00;50369.75;4973786;28;20034;-62
2021/10/29 11:21:54;;;;;;;2.03;0.80;;;;;;;-149.78;100.00;50346.28;4964386;28;20062;-62
2021/10/29 11:24:27;;;;;;;1.90;0.70;;;;;;;-149.78;100.00;50352.16;4975978;28;20031;-60
2021/10/29 11:27:06;;;;;;;2.83;0.60;;;;;;;-149.78;100.00;50373.66;4973284;28;20094;-62
2021/10/29 11:29:44;;;;;;;1.77;0.63;;;;;;;-149.78;100.00;50369.75;4972468;28;20493;-63
2021/10/29 11:32:11;;;;;;;2.35;0.50;;;;;;;-149.78;100.00;50381.47;4973720;28;20122;-62
2021/10/29 11:34:37;;;;;;;0.30;0.30;;;;;;;-149.78;100.00;50350.19;4975488;28;20042;-62
2021/10/29 11:37:03;;;;;;;0.40;0.40;;;;;;;-149.78;100.00;50369.75;4973621;28;20069;-61
2021/10/29 11:39:29;;;;;;;1.17;0.38;;;;;;;-149.78;100.00;50416.69;4970636;28;20494;-61
2021/10/29 11:41:58;;;;;;;0.68;0.40;;;;;;;-149.78;100.00;50338.44;4971904;28;20042;-63
2021/10/29 11:44:25;;;;;;;0.70;0.38;;;;;;;-149.78;100.00;50385.38;4972847;28;20051;-62
2021/10/29 11:46:55;;;;;;;1.77;0.55;;;;;;;-149.78;100.00;50342.38;4971357;28;20146;-63
2021/10/29 11:49:28;;;;;;;0.73;0.30;;;;;;;-149.78;100.00;50358.00;4972208;28;20395;-62
2021/10/29 11:52:14;;;;;;;1.65;0.30;;;;;;;-149.78;100.00;50358.00;4971415;28;20121;-64
2021/10/29 11:54:43;;;;;;;0.88;0.45;;;;;;;-149.78;100.00;50361.91;4972603;28;20042;-62
2021/10/29 12:00:18;;;;;;;0.60;0.40;;;;;;;-149.78;100.00;50379.53;4975935;28;20041;-61
2021/10/29 12:08:24;;;;;;;1.08;0.50;;;;;;;-149.78;100.00;50389.31;4976543;28;20462;-61
2021/10/29 12:10:51;;;;;;;0.70;0.40;;;;;;;-149.78;100.00;50365.84;4975143;28;20047;-63
2021/10/29 12:13:17;;;;;;;0.80;0.80;;;;;;;-149.78;100.00;50397.13;4976457;28;20173;-62
2021/10/29 12:15:43;;;;;;;0.80;0.80;;;;;;;-149.78;100.00;50391.25;4976319;28;20114;-63
2021/10/29 12:18:10;;;;;;;2.67;1.00;;;;;;;-149.78;100.00;50428.41;4971176;28;20110;-63
2021/10/29 12:20:47;;;;;;;2.40;0.90;;;;;;;-149.78;100.00;50361.91;4974774;28;20540;-63
2021/10/29 12:23:21;;;;;;;0.90;0.70;;;;;;;-149.78;100.00;50412.78;4977270;28;20037;-63
2021/10/29 12:28:26;;;;;;;2.85;0.57;;;;;;;-149.78;100.00;50395.16;4981381;28;20368;-63
2021/10/29 12:30:56;;;;;;;0.63;0.40;;;;;;;-149.78;100.00;50424.50;4971641;28;20035;-62
2021/10/29 12:53:04;;;;;;;3.90;1.35;;;;;;;-149.78;100.00;50455.81;4972119;28;20362;-62
2021/10/29 13:03:57;;;;;;;4.72;2.80;;;;;;;-149.78;100.00;50428.41;4990297;28;20148;-63
2021/10/29 13:06:32;;;;;;;7.18;3.13;;;;;;;-149.78;100.00;50432.31;4973153;28;20459;-62
2021/10/29 13:08:59;;;;;;;5.38;2.90;;;;;;;-149.78;100.00;50436.25;4974060;28;20039;-63
2021/10/29 13:11:25;;;;;;;8.10;2.72;;;;;;;-149.78;100.00;50401.03;4975532;28;20129;-63
2021/10/29 13:14:01;;;;;;;7.07;2.78;;;;;;;-149.78;100.00;50359.97;4969398;28;20035;-63
2021/10/29 13:16:28;;;;;;;5.20;2.85;;;;;;;-149.78;100.00;50440.16;4974463;28;20031;-63
2021/10/29 13:19:08;;;;;;;4.35;2.28;;;;;;;-149.78;100.00;50381.47;4975800;28;20117;-63
2021/10/29 13:59:44;;;;;;;3.95;1.20;;;;;;;-149.78;100.00;50404.94;4973907;28;20125;-63
2021/10/29 14:29:38;;;;;;;2.90;1.10;;;;;;;-149.78;100.00;50401.03;4972622;28;20043;-62
2021/10/29 14:32:17;;;;;;;2.63;1.00;;;;;;;-149.78;100.00;50434.28;4962812;28;20118;-62
2021/10/29 14:40:00;;;;;;;2.50;1.40;;;;;;;-149.78;100.00;50385.38;4969726;28;20039;-62
2021/10/29 14:42:42;;;;;;;1.35;0.95;;;;;;;-149.78;100.00;50401.03;4964473;28;21649;-62
2021/10/29 14:45:17;;;;;;;2.00;0.93;;;;;;;-149.78;100.00;50406.91;4964309;28;20854;-62
2021/10/29 14:47:57;;;;;;;2.22;1.10;;;;;;;-149.78;100.00;50424.50;4967977;28;20034;-62
2021/10/29 14:50:50;;;;;;;2.50;1.05;;;;;;;-149.78;100.00;50397.13;4966468;28;20031;-62
2021/10/29 15:01:57;;;;;;;0.63;0.60;;;;;;;-149.78;100.00;50399.09;4968705;28;20463;-62
2021/10/29 15:28:46;;;;;;;1.63;0.93;;;;;;;-149.78;100.00;50385.38;4964643;28;20055;-60
2021/10/29 15:31:27;;;;;;;2.15;0.90;;;;;;;-149.78;100.00;50428.41;4966391;28;20062;-60
2021/10/29 15:42:46;;;;;;;6.50;1.10;;;;;;;-149.78;100.00;50381.47;4970016;28;20039;-61
2021/10/29 15:45:18;;;;;;;4.15;1.30;;;;;;;-149.78;100.00;50389.31;4964353;28;20514;-61
2021/10/29 15:50:33;;;;;;;4.63;1.55;;;;;;;-149.78;100.00;50381.47;4962389;28;20065;-60
2021/10/29 15:53:00;;;;;;;4.03;1.40;;;;;;;-149.78;100.00;50393.22;4961151;28;20155;-60
2021/10/29 15:55:36;;;;;;;4.47;1.40;;;;;;;-149.78;100.00;50373.66;4963564;28;20058;-61
2021/10/29 15:58:32;;;;;;;4.70;1.38;;;;;;;-149.78;100.00;50385.38;4958957;28;20031;-60
2021/10/29 16:03:52;;;;;;;2.70;1.38;;;;;;;-149.78;100.00;50408.84;4959173;28;20161;-61